createdAt,value
2023-08-12T00:00:12.178Z,10.30
2023-08-12T00:02:42.716Z,8.23
2023-08-12T00:05:11.901Z,10.35
2023-08-12T00:07:38.453Z,9.93
2023-08-12T00:10:06.051Z,7.63
2023-08-12T00:12:33.043Z,25.15
2023-08-12T00:15:00.162Z,9.73
2023-08-12T00:17:26.669Z,9.00
2023-08-12T00:19:53.292Z,12.13
2023-08-12T00:22:19.922Z,9.98
2023-08-12T00:24:46.517Z,9.68
2023-08-12T00:27:13.260Z,7.85
2023-08-12T00:29:40.223Z,11.60
2023-08-12T00:32:06.995Z,8.70
2023-08-12T00:34:33.455Z,9.52
2023-08-12T00:36:59.897Z,10.57
2023-08-12T00:39:26.378Z,8.93
2023-08-12T00:41:52.906Z,10.85
2023-08-12T00:44:19.501Z,11.53
2023-08-12T00:46:46.187Z,10.32
2023-08-12T00:49:13.881Z,8.73
2023-08-12T00:51:45.527Z,11.40
2023-08-12T00:54:15.505Z,8.57
2023-08-12T00:56:42.827Z,10.23
2023-08-12T00:59:11.308Z,7.40
2023-08-12T01:01:42.593Z,9.90
2023-08-12T01:04:09.194Z,12.40
2023-08-12T01:06:36.598Z,10.75
2023-08-12T01:09:06.157Z,9.43
2023-08-12T01:12:10.181Z,9.95
2023-08-12T01:14:48.856Z,10.23
2023-08-12T01:17:16.677Z,11.68
2023-08-12T01:19:44.060Z,9.35
2023-08-12T01:22:12.646Z,13.73
2023-08-12T01:24:40.891Z,8.05
2023-08-12T01:27:09.334Z,8.90
2023-08-12T01:29:42.505Z,11.40
2023-08-12T01:32:38.341Z,8.82
2023-08-12T01:35:12.869Z,11.57
2023-08-12T01:37:40.362Z,11.65
2023-08-12T01:40:10.198Z,9.05
2023-08-12T01:42:40.979Z,8.20
2023-08-12T01:45:08.088Z,8.50
2023-08-12T01:47:34.663Z,10.23
2023-08-12T01:50:01.217Z,7.30
2023-08-12T01:52:27.745Z,8.80
2023-08-12T01:54:54.181Z,10.15
2023-08-12T01:57:20.693Z,7.85
2023-08-12T01:59:47.339Z,9.57
2023-08-12T02:02:14.230Z,9.23
2023-08-12T02:04:43.454Z,9.60
2023-08-12T02:07:10.190Z,9.93
2023-08-12T02:09:36.922Z,11.43
2023-08-12T02:12:03.557Z,8.47
2023-08-12T02:14:30.047Z,9.38
2023-08-12T02:16:56.484Z,8.63
2023-08-12T02:19:22.951Z,9.05
2023-08-12T02:21:49.478Z,10.98
2023-08-12T02:24:15.891Z,8.67
2023-08-12T02:26:42.285Z,10.52
2023-08-12T02:29:08.724Z,8.50
2023-08-12T02:31:35.233Z,7.57
2023-08-12T02:34:01.684Z,10.48
2023-08-12T02:36:28.155Z,9.43
2023-08-12T02:38:54.558Z,10.80
2023-08-12T02:41:20.963Z,9.95
2023-08-12T02:43:47.427Z,8.63
2023-08-12T02:46:16.319Z,10.18
2023-08-12T02:48:45.714Z,8.80
2023-08-12T02:51:12.214Z,9.98
2023-08-12T02:53:38.590Z,9.80
2023-08-12T02:56:05.086Z,10.40
2023-08-12T02:58:31.614Z,9.90
2023-08-12T03:00:58.314Z,10.40
2023-08-12T03:03:24.792Z,10.27
2023-08-12T03:05:51.232Z,12.18
2023-08-12T03:08:17.657Z,14.05
2023-08-12T03:10:45.971Z,14.88
2023-08-12T03:13:12.527Z,16.47
2023-08-12T03:15:43.043Z,14.73
2023-08-12T03:18:09.469Z,16.30
2023-08-12T03:20:35.930Z,16.60
2023-08-12T03:23:02.396Z,22.10
2023-08-12T03:25:28.826Z,16.87
2023-08-12T03:27:55.224Z,15.80
2023-08-12T03:30:21.788Z,17.83
2023-08-12T03:32:48.188Z,17.90
2023-08-12T03:35:15.242Z,21.00
2023-08-12T03:37:42.726Z,21.50
2023-08-12T03:40:09.794Z,19.77
2023-08-12T03:42:36.420Z,20.35
2023-08-12T03:45:03.069Z,19.35
2023-08-12T03:47:29.571Z,20.58
2023-08-12T03:49:56.101Z,20.87
2023-08-12T03:52:30.342Z,23.10
2023-08-12T03:54:59.794Z,21.35
2023-08-12T03:57:26.255Z,23.08
2023-08-12T03:59:52.697Z,22.50
2023-08-12T04:02:19.104Z,21.70
2023-08-12T04:04:45.528Z,22.88
2023-08-12T04:07:37.454Z,22.90
2023-08-12T04:10:02.085Z,21.60
2023-08-12T04:12:28.545Z,21.88
2023-08-12T04:14:54.994Z,24.20
2023-08-12T04:17:24.412Z,21.73
2023-08-12T04:19:50.926Z,26.10
2023-08-12T04:22:17.901Z,27.90
2023-08-12T04:24:44.336Z,20.48
2023-08-12T04:27:16.976Z,22.53
2023-08-12T04:29:43.826Z,25.77
2023-08-12T04:32:10.306Z,27.30
2023-08-12T04:34:36.744Z,24.30
2023-08-12T04:37:03.615Z,24.13
2023-08-12T04:39:34.743Z,23.30
2023-08-12T04:42:01.171Z,22.77
2023-08-12T04:44:32.009Z,25.70
2023-08-12T04:47:03.977Z,22.50
2023-08-12T04:49:33.291Z,21.40
2023-08-12T04:51:59.952Z,23.43
2023-08-12T04:54:26.393Z,29.50
2023-08-12T04:56:58.409Z,23.80
2023-08-12T04:59:27.523Z,21.02
2023-08-12T05:02:04.010Z,22.88
2023-08-12T05:04:31.455Z,24.10
2023-08-12T05:06:57.972Z,22.48
2023-08-12T05:09:24.357Z,24.02
2023-08-12T05:11:50.844Z,25.73
2023-08-12T05:14:17.289Z,23.42
2023-08-12T05:16:43.813Z,26.10
2023-08-12T05:19:10.281Z,25.27
2023-08-12T05:21:36.743Z,26.52
2023-08-12T05:24:03.310Z,24.50
2023-08-12T05:26:29.788Z,23.48
2023-08-12T05:28:56.242Z,19.73
2023-08-12T05:31:23.283Z,19.73
2023-08-12T05:33:49.975Z,24.30
2023-08-12T05:36:16.466Z,23.77
2023-08-12T05:38:42.925Z,24.30
2023-08-12T05:41:09.549Z,23.70
2023-08-12T05:43:36.129Z,25.10
2023-08-12T05:46:02.721Z,16.20
2023-08-12T05:48:29.578Z,21.75
2023-08-12T05:50:56.104Z,22.45
2023-08-12T05:53:23.524Z,29.73
2023-08-12T05:55:49.949Z,29.35
2023-08-12T05:58:16.793Z,26.15
2023-08-12T06:00:46.348Z,30.08
2023-08-12T06:03:13.753Z,35.70
2023-08-12T06:05:42.372Z,24.70
2023-08-12T06:08:08.836Z,29.20
2023-08-12T06:10:37.071Z,23.40
2023-08-12T06:13:05.520Z,25.23
2023-08-12T06:15:32.521Z,21.95
2023-08-12T06:17:59.308Z,21.50
2023-08-12T06:20:26.044Z,22.25
2023-08-12T06:22:53.157Z,20.40
2023-08-12T06:25:20.579Z,18.88
2023-08-12T06:27:48.241Z,17.70
2023-08-12T06:30:15.573Z,17.97
2023-08-12T06:32:42.102Z,15.00
2023-08-12T06:35:08.951Z,17.35
2023-08-12T06:37:35.407Z,14.02
2023-08-12T06:40:01.952Z,14.38
2023-08-12T06:42:28.364Z,14.40
2023-08-12T06:44:57.663Z,15.45
2023-08-12T06:47:24.219Z,13.65
2023-08-12T06:49:50.749Z,16.15
2023-08-12T06:52:17.341Z,16.88
2023-08-12T06:54:43.831Z,13.67
2023-08-12T06:57:12.863Z,15.50
2023-08-12T06:59:39.621Z,13.73
2023-08-12T07:02:07.639Z,12.98
2023-08-12T07:04:34.127Z,13.15
2023-08-12T07:07:00.918Z,13.50
2023-08-12T07:09:27.304Z,12.85
2023-08-12T07:11:53.782Z,12.77
2023-08-12T07:14:20.224Z,11.93
2023-08-12T07:16:46.672Z,12.88
2023-08-12T07:19:15.713Z,13.93
2023-08-12T07:21:45.952Z,14.70
2023-08-12T07:24:12.427Z,12.07
2023-08-12T07:26:38.847Z,48.70
2023-08-12T07:29:05.520Z,15.68
2023-08-12T07:31:32.044Z,12.97
2023-08-12T07:33:58.663Z,14.98
2023-08-12T07:36:25.143Z,11.10
2023-08-12T07:38:51.624Z,12.65
2023-08-12T07:41:18.087Z,13.75
2023-08-12T07:43:44.565Z,11.60
2023-08-12T07:46:11.024Z,13.30
2023-08-12T07:48:39.192Z,13.52
2023-08-12T07:51:06.072Z,12.23
2023-08-12T07:53:32.510Z,13.57
2023-08-12T07:55:58.996Z,12.63
2023-08-12T07:58:25.458Z,13.07
2023-08-12T08:00:55.028Z,18.15
2023-08-12T08:03:21.664Z,14.25
2023-08-12T08:05:48.152Z,15.80
2023-08-12T08:08:14.892Z,13.87
2023-08-12T08:10:41.407Z,13.77
2023-08-12T08:13:07.908Z,13.95
2023-08-12T08:15:34.342Z,15.60
2023-08-12T08:18:02.643Z,13.57
2023-08-12T08:20:29.265Z,12.43
2023-08-12T08:22:56.377Z,14.23
2023-08-12T08:25:23.160Z,16.63
2023-08-12T08:27:50.141Z,14.70
2023-08-12T08:30:16.649Z,14.43
2023-08-12T08:32:43.222Z,13.80
2023-08-12T08:35:09.823Z,12.60
2023-08-12T08:37:36.343Z,12.75
2023-08-12T08:40:03.530Z,15.07
2023-08-12T08:42:30.624Z,10.35
2023-08-12T08:45:01.270Z,14.37
2023-08-12T08:47:28.502Z,18.85
2023-08-12T08:49:57.256Z,8.85
2023-08-12T08:52:27.652Z,9.13
2023-08-12T08:54:54.415Z,6.70
2023-08-12T08:57:24.414Z,6.93
2023-08-12T09:00:16.366Z,6.65
2023-08-12T09:02:45.614Z,6.55
2023-08-12T09:05:13.980Z,6.72
2023-08-12T09:07:41.913Z,4.25
2023-08-12T09:10:09.655Z,6.57
2023-08-12T09:12:37.516Z,7.07
2023-08-12T09:15:05.602Z,8.45
2023-08-12T09:17:33.652Z,7.15
2023-08-12T09:20:00.526Z,7.53
2023-08-12T09:22:27.554Z,8.87
2023-08-12T09:25:00.243Z,9.98
2023-08-12T09:27:26.706Z,10.23
2023-08-12T09:30:00.185Z,12.82
2023-08-12T09:32:26.829Z,13.10
2023-08-12T09:34:54.621Z,12.60
2023-08-12T09:37:23.250Z,13.23
2023-08-12T09:39:53.084Z,16.77
2023-08-12T09:42:22.394Z,12.73
2023-08-12T09:44:48.900Z,11.88
2023-08-12T09:47:15.533Z,11.57
2023-08-12T09:49:42.235Z,10.63
2023-08-12T09:52:10.115Z,10.73
2023-08-12T09:54:37.157Z,10.82
2023-08-12T09:57:07.428Z,10.30
2023-08-12T09:59:38.962Z,11.87
2023-08-12T10:02:08.736Z,11.52
2023-08-12T10:04:42.042Z,10.90
2023-08-12T10:07:13.907Z,9.82
2023-08-12T10:09:41.051Z,9.80
2023-08-12T10:12:08.454Z,10.13
2023-08-12T10:14:35.188Z,8.77
2023-08-12T10:17:06.184Z,10.73
2023-08-12T10:19:37.100Z,8.77
2023-08-12T10:22:04.767Z,8.02
2023-08-12T10:24:32.357Z,7.87
2023-08-12T10:26:58.801Z,8.77
2023-08-12T10:29:26.888Z,7.05
2023-08-12T10:31:53.754Z,6.88
2023-08-12T10:34:24.713Z,7.28
2023-08-12T10:37:02.799Z,9.87
2023-08-12T10:39:33.038Z,8.07
2023-08-12T10:42:00.151Z,7.32
2023-08-12T10:44:55.356Z,9.27
2023-08-12T10:47:21.934Z,5.00
2023-08-12T10:49:54.087Z,4.63
2023-08-12T10:52:34.787Z,6.72
2023-08-12T10:55:24.240Z,7.47
2023-08-12T10:57:55.068Z,6.05
2023-08-12T11:00:28.162Z,7.00
2023-08-12T11:02:57.401Z,6.50
2023-08-12T11:05:25.100Z,7.10
2023-08-12T11:07:59.686Z,7.68
2023-08-12T11:10:27.958Z,6.80
2023-08-12T11:12:57.417Z,8.05
2023-08-12T11:15:43.090Z,6.33
2023-08-12T11:18:20.703Z,8.40
2023-08-12T11:20:51.000Z,7.80
2023-08-12T11:23:18.226Z,6.35
2023-08-12T11:25:46.029Z,6.20
2023-08-12T11:28:12.759Z,6.50
2023-08-12T11:30:43.383Z,7.10
2023-08-12T11:33:10.496Z,6.20
2023-08-12T11:35:38.848Z,6.00
2023-08-12T11:38:06.501Z,7.70
2023-08-12T11:40:32.972Z,6.87
2023-08-12T11:42:59.367Z,6.72
2023-08-12T11:45:28.301Z,5.88
2023-08-12T11:47:55.788Z,6.47
2023-08-12T11:50:27.459Z,5.88
2023-08-12T11:52:56.158Z,5.60
2023-08-12T11:55:23.117Z,5.75
2023-08-12T11:57:51.835Z,5.93
2023-08-12T12:00:19.766Z,7.35
2023-08-12T12:02:51.610Z,5.03
2023-08-12T12:05:23.653Z,5.27
2023-08-12T12:07:51.222Z,5.78
2023-08-12T12:10:31.013Z,7.10
2023-08-12T12:13:01.004Z,6.05
2023-08-12T12:15:27.481Z,7.03
2023-08-12T12:17:59.345Z,5.47
2023-08-12T12:20:28.056Z,5.40
2023-08-12T12:22:54.768Z,4.10
2023-08-12T12:25:22.825Z,5.05
2023-08-12T12:27:49.373Z,6.32
2023-08-12T12:30:17.175Z,5.97
2023-08-12T12:32:44.139Z,5.25
2023-08-12T12:35:10.602Z,5.30
2023-08-12T12:37:40.397Z,4.93
2023-08-12T12:40:08.382Z,4.75
2023-08-12T12:42:34.902Z,6.07
2023-08-12T12:45:01.356Z,4.82
2023-08-12T12:47:27.906Z,5.07
2023-08-12T12:49:54.313Z,5.07
2023-08-12T12:52:20.789Z,4.20
2023-08-12T12:54:53.280Z,6.80
2023-08-12T12:57:19.720Z,4.22
2023-08-12T12:59:46.143Z,4.22
2023-08-12T13:02:12.872Z,4.65
2023-08-12T13:04:39.613Z,5.13
2023-08-12T13:07:06.124Z,3.83
2023-08-12T13:09:45.652Z,4.63
2023-08-12T13:12:12.260Z,3.67
2023-08-12T13:14:38.984Z,4.72
2023-08-12T13:17:05.424Z,4.28
2023-08-12T13:19:31.831Z,3.70
2023-08-12T13:21:58.280Z,3.70
2023-08-12T13:24:37.930Z,4.88
2023-08-12T13:27:04.823Z,4.38
2023-08-12T13:29:33.000Z,3.53
2023-08-12T13:31:59.483Z,3.57
2023-08-12T13:34:25.927Z,3.78
2023-08-12T13:36:52.321Z,3.65
2023-08-12T13:39:18.926Z,4.70
2023-08-12T13:41:45.341Z,4.68
2023-08-12T13:44:11.794Z,3.40
2023-08-12T13:46:38.200Z,3.55
2023-08-12T13:49:04.659Z,4.75
2023-08-12T13:51:31.796Z,4.40
2023-08-12T13:53:58.306Z,3.50
2023-08-12T13:56:24.770Z,4.40
2023-08-12T13:58:51.198Z,3.78
2023-08-12T14:01:17.633Z,4.38
2023-08-12T14:03:44.072Z,3.20
2023-08-12T14:06:10.548Z,5.13
2023-08-12T14:08:37.051Z,4.53
2023-08-12T14:11:03.468Z,4.03
2023-08-12T14:13:29.893Z,3.88
2023-08-12T14:15:56.418Z,4.60
2023-08-12T14:18:22.951Z,4.18
2023-08-12T14:20:49.443Z,3.87
2023-08-12T14:23:15.856Z,4.25
2023-08-12T14:25:42.299Z,4.85
2023-08-12T14:28:08.676Z,3.97
2023-08-12T14:30:35.198Z,4.53
2023-08-12T14:33:01.750Z,3.63
2023-08-12T14:35:28.266Z,4.68
2023-08-12T14:37:54.719Z,4.70
2023-08-12T14:40:21.165Z,6.00
2023-08-12T14:42:47.592Z,5.90
2023-08-12T14:45:14.111Z,6.90
2023-08-12T14:47:40.634Z,4.88
2023-08-12T14:50:07.510Z,5.22
2023-08-12T14:52:33.924Z,4.72
2023-08-12T14:55:03.263Z,5.60
2023-08-12T14:57:29.716Z,5.47
2023-08-12T14:59:56.100Z,5.30
2023-08-12T15:02:25.519Z,4.63
2023-08-12T15:04:52.181Z,4.88
2023-08-12T15:07:19.797Z,4.45
2023-08-12T15:09:46.584Z,5.23
2023-08-12T15:12:13.151Z,5.72
2023-08-12T15:14:39.730Z,5.63
2023-08-12T15:17:06.252Z,6.53
2023-08-12T15:19:32.651Z,5.38
2023-08-12T15:21:59.107Z,5.80
2023-08-12T15:24:25.622Z,5.82
2023-08-12T15:26:52.130Z,5.57
2023-08-12T15:29:18.687Z,6.28
2023-08-12T15:31:45.197Z,6.35
2023-08-12T15:34:11.630Z,5.77
2023-08-12T15:36:41.981Z,4.95
2023-08-12T15:39:09.139Z,5.95
2023-08-12T15:41:42.061Z,4.05
2023-08-12T15:44:08.484Z,4.97
2023-08-12T15:46:41.006Z,5.07
2023-08-12T15:49:11.661Z,5.72
2023-08-12T15:51:39.088Z,5.88
2023-08-12T15:54:06.192Z,5.60
2023-08-12T15:56:35.908Z,5.82
2023-08-12T15:59:03.431Z,5.27
2023-08-12T16:01:31.883Z,5.78
2023-08-12T16:03:59.271Z,5.20
2023-08-12T16:06:26.025Z,5.05
2023-08-12T16:09:09.980Z,5.78
2023-08-12T16:11:39.210Z,6.23
2023-08-12T16:14:05.635Z,6.40
2023-08-12T16:16:32.311Z,5.97
2023-08-12T16:18:58.842Z,5.75
2023-08-12T16:21:25.794Z,6.00
2023-08-12T16:23:52.490Z,4.87
2023-08-12T16:26:20.879Z,9.32
2023-08-12T16:28:48.568Z,4.57
2023-08-12T16:31:15.073Z,3.97
2023-08-12T16:33:44.762Z,10.10
2023-08-12T16:36:11.233Z,3.13
2023-08-12T16:38:37.679Z,4.13
2023-08-12T16:41:04.774Z,3.60
2023-08-12T16:43:31.360Z,6.85
2023-08-12T16:45:57.904Z,4.60
2023-08-12T16:48:24.376Z,3.60
2023-08-12T16:50:51.258Z,3.92
2023-08-12T16:53:17.741Z,4.75
2023-08-12T16:55:44.186Z,3.78
2023-08-12T16:58:10.632Z,4.63
2023-08-12T17:00:37.032Z,5.20
2023-08-12T17:03:03.736Z,4.10
2023-08-12T17:05:30.206Z,4.35
2023-08-12T17:07:56.612Z,3.85
2023-08-12T17:10:23.717Z,4.30
2023-08-12T17:12:50.215Z,6.27
2023-08-12T17:15:16.715Z,5.05
2023-08-12T17:17:43.226Z,6.03
2023-08-12T17:20:10.024Z,4.82
2023-08-12T17:22:36.538Z,3.60
2023-08-12T17:25:05.985Z,4.50
2023-08-12T17:27:33.201Z,4.82
2023-08-12T17:29:59.661Z,4.00
2023-08-12T17:32:26.252Z,3.60
2023-08-12T17:34:53.027Z,3.83
2023-08-12T17:37:23.571Z,5.10
2023-08-12T17:39:50.204Z,6.57
2023-08-12T17:42:16.585Z,6.45
2023-08-12T17:44:43.025Z,6.35
2023-08-12T17:47:09.525Z,4.43
2023-08-12T17:49:35.943Z,3.90
2023-08-12T17:52:02.498Z,7.78
2023-08-12T17:54:30.439Z,4.85
2023-08-12T17:56:56.895Z,4.55
2023-08-12T17:59:23.355Z,4.72
2023-08-12T18:01:49.873Z,4.60
2023-08-12T18:04:16.302Z,4.53
2023-08-12T18:06:42.739Z,5.38
2023-08-12T18:09:10.494Z,3.92
2023-08-12T18:11:37.049Z,4.22
2023-08-12T18:14:03.591Z,5.50
2023-08-12T18:16:30.177Z,4.22
2023-08-12T18:18:56.692Z,4.85
2023-08-12T18:21:23.071Z,4.70
2023-08-12T18:23:49.545Z,5.25
2023-08-12T18:26:15.975Z,3.77
2023-08-12T18:28:42.537Z,5.05
2023-08-12T18:31:09.453Z,6.45
2023-08-12T18:33:35.987Z,6.63
2023-08-12T18:36:02.410Z,4.68
2023-08-12T18:38:28.854Z,5.63
2023-08-12T18:40:55.331Z,3.88
2023-08-12T18:43:21.815Z,4.60
2023-08-12T18:45:48.312Z,7.03
2023-08-12T18:48:14.876Z,3.83
2023-08-12T18:50:41.405Z,3.90
2023-08-12T18:53:07.848Z,4.88
2023-08-12T18:55:34.425Z,4.43
2023-08-12T18:58:00.861Z,4.85
2023-08-12T19:00:27.483Z,4.15
2023-08-12T19:02:54.006Z,5.27
2023-08-12T19:05:20.497Z,5.13
2023-08-12T19:07:46.938Z,5.05
2023-08-12T19:10:13.397Z,6.07
2023-08-12T19:12:39.896Z,5.20
2023-08-12T19:15:06.847Z,5.53
2023-08-12T19:17:33.357Z,3.90
2023-08-12T19:19:59.863Z,6.70
2023-08-12T19:22:26.349Z,5.13
2023-08-12T19:24:52.868Z,5.40
2023-08-12T19:27:22.168Z,4.87
2023-08-12T19:29:48.562Z,7.60
2023-08-12T19:32:15.273Z,4.95
2023-08-12T19:34:41.919Z,4.25
2023-08-12T19:37:08.562Z,5.60
2023-08-12T19:39:35.035Z,5.90
2023-08-12T19:42:02.752Z,8.07
2023-08-12T19:44:31.498Z,6.43
2023-08-12T19:46:58.188Z,5.55
2023-08-12T19:49:25.358Z,7.03
2023-08-12T19:51:51.878Z,5.63
2023-08-12T19:54:18.302Z,5.68
2023-08-12T19:56:44.780Z,5.78
2023-08-12T19:59:13.372Z,5.65
2023-08-12T20:01:43.194Z,4.82
2023-08-12T20:04:09.654Z,5.23
2023-08-12T20:06:36.438Z,6.32
2023-08-12T20:09:03.087Z,4.45
2023-08-12T20:11:29.602Z,5.30
2023-08-12T20:13:56.139Z,7.72
2023-08-12T20:16:22.607Z,5.80
2023-08-12T20:18:49.926Z,8.82
2023-08-12T20:21:16.365Z,8.25
2023-08-12T20:23:42.944Z,18.33
2023-08-12T20:26:10.952Z,12.85
2023-08-12T20:28:37.460Z,12.30
2023-08-12T20:31:03.875Z,8.45
2023-08-12T20:33:33.142Z,9.90
2023-08-12T20:35:59.806Z,7.35
2023-08-12T20:38:26.221Z,4.93
2023-08-12T20:40:52.683Z,8.10
2023-08-12T20:43:19.092Z,9.05
2023-08-12T20:45:45.541Z,6.18
2023-08-12T20:48:12.198Z,5.95
2023-08-12T20:50:38.701Z,10.38
2023-08-12T20:53:08.028Z,10.07
2023-08-12T20:55:34.598Z,6.25
2023-08-12T20:58:01.111Z,5.97
2023-08-12T21:00:27.912Z,6.55
2023-08-12T21:02:54.462Z,7.75
2023-08-12T21:05:21.045Z,5.57
2023-08-12T21:07:47.537Z,6.07
2023-08-12T21:10:14.093Z,7.10
2023-08-12T21:12:40.610Z,8.23
2023-08-12T21:15:07.649Z,6.78
2023-08-12T21:17:34.327Z,6.30
2023-08-12T21:20:00.811Z,4.03
2023-08-12T21:22:27.326Z,7.20
2023-08-12T21:24:53.821Z,10.38
2023-08-12T21:27:20.375Z,7.55
2023-08-12T21:29:46.872Z,5.03
2023-08-12T21:32:13.658Z,5.38
2023-08-12T21:34:40.235Z,6.63
2023-08-12T21:37:06.755Z,6.68
2023-08-12T21:39:33.157Z,5.50
2023-08-12T21:41:59.627Z,6.07
2023-08-12T21:44:26.102Z,5.18
2023-08-12T21:46:52.516Z,5.13
2023-08-12T21:49:18.965Z,10.02
2023-08-12T21:51:45.859Z,6.20
2023-08-12T21:54:12.388Z,5.93
2023-08-12T21:56:38.870Z,6.68
2023-08-12T21:59:05.312Z,8.60
2023-08-12T22:01:31.926Z,6.70
2023-08-12T22:03:58.435Z,6.72
2023-08-12T22:06:24.825Z,5.23
2023-08-12T22:08:51.295Z,6.60
2023-08-12T22:11:17.906Z,6.53
2023-08-12T22:13:44.321Z,10.07
2023-08-12T22:16:10.832Z,6.95
2023-08-12T22:18:37.674Z,5.30
2023-08-12T22:21:04.762Z,6.53
2023-08-12T22:23:31.336Z,6.85
2023-08-12T22:25:57.771Z,6.57
2023-08-12T22:28:24.157Z,5.75
2023-08-12T22:30:53.172Z,6.03
2023-08-12T22:33:19.849Z,8.23
2023-08-12T22:35:46.560Z,5.95
2023-08-12T22:38:13.264Z,4.95
2023-08-12T22:40:39.702Z,4.50
2023-08-12T22:43:06.172Z,6.73
2023-08-12T22:45:44.254Z,5.13
2023-08-12T22:48:10.889Z,8.25
2023-08-12T22:50:37.901Z,7.35
2023-08-12T22:53:04.611Z,4.40
2023-08-12T22:55:31.165Z,4.87
2023-08-12T22:57:57.780Z,5.40
2023-08-12T23:00:24.501Z,5.13
2023-08-12T23:02:51.118Z,8.13
2023-08-12T23:05:17.663Z,6.70
2023-08-12T23:07:44.173Z,5.90
2023-08-12T23:10:11.196Z,8.05
2023-08-12T23:12:37.843Z,12.57
2023-08-12T23:15:04.910Z,6.93
2023-08-12T23:17:31.430Z,7.43
2023-08-12T23:19:57.870Z,10.40
2023-08-12T23:22:24.367Z,6.20
2023-08-12T23:24:50.851Z,7.28
2023-08-12T23:27:17.283Z,5.03
2023-08-12T23:29:43.739Z,5.85
2023-08-12T23:32:10.454Z,5.57
2023-08-12T23:34:36.848Z,7.93
2023-08-12T23:37:03.313Z,5.40
2023-08-12T23:39:31.659Z,5.43
2023-08-12T23:41:58.576Z,8.75
2023-08-12T23:44:25.025Z,4.73
2023-08-12T23:46:51.479Z,4.88
2023-08-12T23:49:17.925Z,6.05
2023-08-12T23:51:44.346Z,7.30
2023-08-12T23:54:11.119Z,6.53
2023-08-12T23:56:37.727Z,6.43
2023-08-12T23:59:04.727Z,4.35
